Time;durP1;ratioP1;P1;durP2;ratioP2;P2;SDS_P1;SDS_P2;PMS_P1;PMS_P2;Temp;Humidity;BMP_temperature;BMP_pressure;BME280_temperature;BME280_humidity;BME280_pressure;Samples;Min_cycle;Max_cycle;Signal;HPM_P1;HPM_P2
2023/05/24 00:01:02;;;;;;;3.80;3.47;;;14.30;81.40;;;;;;4933102;28;20204;-87
2023/05/24 00:03:33;;;;;;;3.85;3.20;;;14.30;82.00;;;;;;4945445;28;20199;-88
2023/05/24 00:06:00;;;;;;;3.42;3.15;;;14.30;81.10;;;;;;4980076;28;20193;-88
2023/05/24 00:08:28;;;;;;;3.70;3.40;;;14.40;80.80;;;;;;4953420;28;20200;-88
2023/05/24 00:11:36;;;;;;;3.70;3.40;;;14.30;81.40;;;;;;4974711;28;20208;-88
2023/05/24 00:14:04;;;;;;;4.72;3.30;;;14.20;81.50;;;;;;4970554;28;20204;-89
2023/05/24 00:29:56;;;;;;;5.40;3.20;;;14.00;82.50;;;;;;4964627;28;20204;-90
2023/05/24 00:32:44;;;;;;;3.97;3.67;;;14.10;82.40;;;;;;4975539;28;20208;-88
2023/05/24 00:35:31;;;;;;;3.90;3.50;;;14.10;83.90;;;;;;4965522;28;20216;-89
2023/05/24 00:47:28;;;;;;;4.10;3.70;;;14.00;81.80;;;;;;4957644;28;20336;-88
2023/05/24 01:05:06;;;;;;;;;;;;;;;;;;;;;
2023/05/24 01:24:32;;;;;;;5.28;4.78;;;13.70;86.10;;;;;;5054195;28;20213;-88
2023/05/24 01:30:28;;;;;;;5.13;4.63;;;13.60;87.60;;;;;;5063663;28;20216;-89
2023/05/24 01:35:40;;;;;;;5.13;4.63;;;13.60;87.00;;;;;;5063064;28;20202;-89
2023/05/24 01:58:28;;;;;;;5.03;4.60;;;13.60;87.10;;;;;;5054029;28;20725;-89
2023/05/24 02:06:31;;;;;;;6.10;5.50;;;13.50;88.50;;;;;;5064357;28;20201;-88
2023/05/24 02:09:05;;;;;;;5.63;5.13;;;13.40;88.90;;;;;;5058107;28;20204;-88
2023/05/24 02:14:30;;;;;;;6.45;5.78;;;13.60;85.50;;;;;;5051791;28;20218;-88
2023/05/24 02:19:48;;;;;;;6.45;5.85;;;13.50;86.70;;;;;;5061030;28;20201;-88
2023/05/24 02:28:00;;;;;;;6.40;5.80;;;13.40;88.00;;;;;;5049764;28;20571;-88
2023/05/24 02:34:01;;;;;;;7.20;6.50;;;13.40;87.90;;;;;;5042018;28;20214;-87
2023/05/24 02:36:35;;;;;;;7.50;6.57;;;13.40;88.90;;;;;;5033753;28;20224;-87
2023/05/24 02:39:21;;;;;;;7.25;6.55;;;13.40;88.40;;;;;;5042268;28;20199;-87
2023/05/24 02:41:59;;;;;;;7.25;6.55;;;13.40;88.90;;;;;;5046259;28;20289;-89
2023/05/24 02:53:04;;;;;;;6.82;5.63;;;13.70;86.60;;;;;;4945880;28;20227;-87
2023/05/24 03:03:50;;;;;;;7.90;7.10;;;13.60;85.90;;;;;;5027952;28;20335;-88
2023/05/24 03:12:23;;;;;;;6.93;6.20;;;13.40;88.40;;;;;;5039651;28;20203;-89
2023/05/24 03:17:51;;;;;;;7.13;6.38;;;13.40;88.50;;;;;;5046375;28;20221;-88
2023/05/24 03:20:23;;;;;;;6.88;6.22;;;13.40;87.80;;;;;;5032612;28;20611;-88
2023/05/24 03:30:05;;;;;;;6.25;5.65;;;13.50;87.00;;;;;;5042276;28;20232;-87
2023/05/24 03:32:33;;;;;;;6.32;5.65;;;13.50;85.50;;;;;;5044407;28;20217;-88
2023/05/24 03:37:53;;;;;;;6.13;5.63;;;13.40;86.60;;;;;;5033557;28;20562;-88
2023/05/24 03:40:57;;;;;;;6.45;5.85;;;13.40;86.30;;;;;;5041711;28;20245;-87
2023/05/24 03:43:33;;;;;;;7.20;6.50;;;13.40;86.10;;;;;;5045538;28;20214;-87
2023/05/24 03:57:40;;;;;;;8.30;6.47;;;13.40;88.00;;;;;;5007081;28;20779;-87
2023/05/24 04:12:30;;;;;;;6.10;5.50;;;13.30;86.70;;;;;;4982965;28;20285;-87
2023/05/24 04:14:57;;;;;;;7.80;6.65;;;13.30;87.40;;;;;;5041403;28;20232;-88
2023/05/24 04:23:11;;;;;;;6.68;5.70;;;13.20;84.70;;;;;;5041851;28;20206;-87
2023/05/24 04:25:43;;;;;;;6.72;5.65;;;13.20;84.10;;;;;;5048184;28;20665;-88
2023/05/24 04:28:10;;;;;;;6.18;5.57;;;13.30;84.20;;;;;;5045816;28;20190;-87
2023/05/24 04:53:30;;;;;;;7.70;6.28;;;13.20;86.90;;;;;;5005211;28;20195;-90
2023/05/24 04:55:57;;;;;;;8.98;6.20;;;13.30;85.80;;;;;;5045785;28;20271;-88
2023/05/24 05:01:14;;;;;;;8.07;6.03;;;13.40;85.60;;;;;;5044073;28;20687;-88
2023/05/24 05:06:25;;;;;;;7.00;6.30;;;13.40;86.20;;;;;;5042826;28;20222;-91
2023/05/24 05:09:02;;;;;;;7.43;5.85;;;13.30;86.80;;;;;;5043916;28;20354;-90
2023/05/24 05:11:30;;;;;;;6.82;6.13;;;13.30;85.50;;;;;;5048377;28;20247;-90
2023/05/24 05:14:00;;;;;;;6.60;5.75;;;13.20;85.90;;;;;;5048410;28;20312;-91
2023/05/24 05:16:28;;;;;;;7.13;5.90;;;13.20;86.20;;;;;;5046840;28;20561;-90
2023/05/24 05:18:56;;;;;;;7.78;5.68;;;13.10;85.10;;;;;;5035226;28;20253;-91
2023/05/24 05:24:19;;;;;;;7.95;6.22;;;13.10;84.60;;;;;;5036654;28;20277;-89
2023/05/24 05:27:05;;;;;;;6.93;6.22;;;13.40;83.50;;;;;;5046698;28;20650;-90
2023/05/24 05:29:38;;;;;;;7.03;6.32;;;13.30;82.20;;;;;;5047017;28;20281;-90
2023/05/24 05:32:30;;;;;;;9.80;6.65;;;13.20;82.30;;;;;;5045284;28;20201;-89
2023/05/24 05:35:16;;;;;;;6.55;5.85;;;13.20;82.70;;;;;;5034769;28;20217;-89
2023/05/24 05:37:43;;;;;;;8.30;6.25;;;13.30;81.20;;;;;;5041865;28;20202;-90
2023/05/24 05:40:21;;;;;;;7.22;6.00;;;13.30;82.10;;;;;;5044106;28;20285;-89
2023/05/24 05:43:11;;;;;;;7.53;6.15;;;13.30;82.30;;;;;;5012426;28;20613;-91
2023/05/24 05:45:56;;;;;;;7.72;5.93;;;13.40;81.90;;;;;;5040003;28;20213;-90
2023/05/24 05:48:23;;;;;;;10.32;6.10;;;13.40;80.50;;;;;;5043286;28;20205;-90
2023/05/24 05:50:50;;;;;;;7.88;6.07;;;13.50;81.10;;;;;;5037781;28;20210;-90
2023/05/24 05:53:17;;;;;;;8.77;6.15;;;13.60;79.70;;;;;;5038707;28;20205;-90
2023/05/24 06:01:12;;;;;;;11.18;6.20;;;13.60;78.80;;;;;;5046122;28;20685;-90
2023/05/24 06:06:32;;;;;;;8.20;6.47;;;13.80;79.70;;;;;;5045804;28;20211;-93
2023/05/24 06:11:45;;;;;;;9.95;7.28;;;13.90;77.00;;;;;;5027732;28;20213;-90
2023/05/24 06:14:18;;;;;;;8.07;7.03;;;13.90;77.80;;;;;;5041883;28;20697;-89
2023/05/24 06:16:46;;;;;;;11.27;7.07;;;14.20;76.70;;;;;;5043577;28;20655;-89
2023/05/24 06:21:56;;;;;;;9.27;7.78;;;14.30;76.80;;;;;;5037871;28;20891;-93
2023/05/24 06:24:23;;;;;;;10.88;8.07;;;14.30;75.00;;;;;;5040008;28;20194;-91
2023/05/24 06:29:33;;;;;;;11.18;8.50;;;14.40;76.80;;;;;;5049390;28;20202;-92
2023/05/24 06:38:03;;;;;;;12.02;10.25;;;15.10;67.60;;;;;;5038319;28;20230;-90
2023/05/24 06:40:30;;;;;;;10.60;8.10;;;15.00;66.30;;;;;;5042744;28;20966;-90
2023/05/24 06:42:58;;;;;;;8.50;7.65;;;15.00;70.10;;;;;;5046509;28;20201;-90
2023/05/24 06:45:25;;;;;;;9.02;8.07;;;15.30;63.60;;;;;;5043426;28;20209;-90
2023/05/24 06:47:52;;;;;;;10.35;9.35;;;15.60;62.50;;;;;;5039824;28;20199;-90
2023/05/24 06:50:19;;;;;;;8.93;7.93;;;16.00;58.70;;;;;;5036717;28;20194;-91
2023/05/24 06:52:46;;;;;;;8.88;7.97;;;15.70;58.60;;;;;;5040302;28;20208;-90
2023/05/24 06:55:14;;;;;;;9.02;7.57;;;15.70;58.90;;;;;;5045572;28;20233;-92
2023/05/24 06:58:02;;;;;;;8.88;8.00;;;15.50;58.60;;;;;;5041005;28;20197;-92
2023/05/24 07:00:29;;;;;;;8.73;7.82;;;15.40;64.50;;;;;;5046802;28;20285;-93
2023/05/24 07:02:56;;;;;;;10.80;7.47;;;15.40;64.60;;;;;;5050782;28;20202;-92
2023/05/24 07:05:43;;;;;;;9.07;8.27;;;15.50;58.50;;;;;;5044455;28;20233;-93
2023/05/24 07:08:10;;;;;;;9.18;7.22;;;15.50;59.20;;;;;;5036919;28;20682;-93
2023/05/24 07:10:38;;;;;;;8.88;6.82;;;15.80;60.20;;;;;;5049096;28;20198;-93
2023/05/24 07:18:29;;;;;;;7.53;6.72;;;16.60;52.80;;;;;;5034559;28;20303;-92
2023/05/24 07:20:55;;;;;;;8.77;6.57;;;16.70;52.90;;;;;;5043359;28;20203;-92
2023/05/24 07:23:22;;;;;;;9.50;7.55;;;16.80;51.80;;;;;;5040605;28;20194;-91
2023/05/24 07:25:50;;;;;;;8.57;7.68;;;16.50;52.70;;;;;;5041770;28;20210;-93
2023/05/24 07:28:19;;;;;;;7.90;7.20;;;16.10;54.20;;;;;;5041643;28;20209;-93
2023/05/24 07:30:48;;;;;;;9.45;7.32;;;15.80;54.60;;;;;;5050800;28;20333;-93
2023/05/24 07:33:15;;;;;;;8.82;6.85;;;15.90;54.60;;;;;;5029751;28;20199;-93
2023/05/24 07:35:44;;;;;;;12.00;6.72;;;16.10;52.40;;;;;;5058063;28;20222;-94
2023/05/24 07:38:14;;;;;;;7.28;6.57;;;16.40;54.70;;;;;;5036508;28;20198;-93
2023/05/24 07:40:42;;;;;;;6.28;5.68;;;16.40;52.60;;;;;;5041868;28;20201;-92
2023/05/24 07:45:51;;;;;;;7.72;5.30;;;16.60;51.90;;;;;;5044037;28;20298;-93
2023/05/24 07:48:19;;;;;;;5.93;5.30;;;16.60;52.90;;;;;;5034982;28;20616;-92
2023/05/24 07:53:28;;;;;;;5.65;5.15;;;16.80;46.60;;;;;;5029424;28;20778;-93
2023/05/24 07:56:15;;;;;;;5.30;4.75;;;17.00;44.40;;;;;;5039043;28;20219;-92
2023/05/24 07:58:45;;;;;;;6.20;5.25;;;17.00;45.20;;;;;;5040807;28;20220;-90
2023/05/24 08:04:11;;;;;;;7.38;5.10;;;16.70;47.30;;;;;;5038373;28;20781;-91
2023/05/24 08:06:38;;;;;;;6.38;5.72;;;16.50;49.60;;;;;;5047534;28;20289;-90
2023/05/24 08:09:07;;;;;;;7.50;5.30;;;16.70;46.10;;;;;;5039037;28;20194;-91
2023/05/24 08:12:01;;;;;;;6.60;4.93;;;16.80;49.20;;;;;;5041183;28;20202;-90
2023/05/24 08:14:48;;;;;;;6.82;5.20;;;16.90;45.60;;;;;;5045337;28;20670;-90
2023/05/24 08:17:16;;;;;;;12.77;5.47;;;16.80;47.50;;;;;;5043515;28;20206;-90
2023/05/24 08:19:43;;;;;;;5.85;5.25;;;16.80;46.10;;;;;;5038775;28;20194;-90
2023/05/24 08:22:11;;;;;;;8.05;5.30;;;16.90;46.40;;;;;;5037999;28;20190;-91
2023/05/24 08:24:57;;;;;;;6.05;5.32;;;17.10;45.80;;;;;;5042697;28;20205;-90
2023/05/24 08:27:27;;;;;;;6.10;5.30;;;17.50;48.30;;;;;;5042590;28;20198;-89
2023/05/24 08:29:54;;;;;;;5.63;5.00;;;17.60;43.60;;;;;;5037979;28;20643;-87
2023/05/24 08:32:23;;;;;;;6.45;5.30;;;17.80;39.10;;;;;;5034841;28;20199;-90
2023/05/24 08:37:32;;;;;;;8.07;5.30;;;18.30;38.50;;;;;;5040745;28;20310;-88
2023/05/24 08:39:59;;;;;;;6.82;5.65;;;18.30;38.70;;;;;;5046032;28;20256;-91
2023/05/24 08:42:27;;;;;;;8.63;5.80;;;18.10;39.40;;;;;;5041448;28;20206;-91
2023/05/24 08:45:06;;;;;;;7.20;5.60;;;17.80;41.20;;;;;;5041948;28;20557;-91
2023/05/24 08:50:40;;;;;;;7.07;5.95;;;17.50;41.30;;;;;;5040912;28;20223;-91
2023/05/24 08:53:09;;;;;;;7.88;5.80;;;17.70;39.30;;;;;;5033701;28;20218;-92
2023/05/24 08:58:17;;;;;;;8.15;5.90;;;17.50;42.80;;;;;;5034390;28;20198;-93
2023/05/24 09:00:44;;;;;;;9.43;6.70;;;17.30;42.50;;;;;;5035312;28;20205;-90
2023/05/24 09:05:56;;;;;;;8.45;5.90;;;16.80;42.00;;;;;;5037094;28;20198;-90
2023/05/24 09:08:23;;;;;;;8.55;6.88;;;16.60;43.00;;;;;;5039146;28;20189;-89
2023/05/24 09:10:50;;;;;;;9.45;6.75;;;16.50;46.20;;;;;;5027628;28;20198;-91
2023/05/24 09:13:18;;;;;;;6.80;6.20;;;16.40;44.70;;;;;;5024380;28;20209;-90
2023/05/24 09:15:45;;;;;;;7.20;6.00;;;16.60;46.50;;;;;;5040317;28;20721;-91
2023/05/24 09:18:13;;;;;;;7.43;6.13;;;16.80;45.40;;;;;;5042912;28;20558;-92
2023/05/24 09:20:40;;;;;;;6.78;5.90;;;16.70;46.40;;;;;;5038825;28;20198;-92
2023/05/24 09:23:07;;;;;;;6.50;5.90;;;16.70;45.40;;;;;;5038756;28;20220;-88
2023/05/24 09:25:35;;;;;;;7.45;6.32;;;16.60;44.90;;;;;;5042960;28;20204;-92
2023/05/24 09:28:23;;;;;;;6.88;6.13;;;16.50;44.60;;;;;;5046847;28;20200;-91
2023/05/24 09:31:09;;;;;;;9.80;6.07;;;16.40;44.80;;;;;;5038530;28;20206;-92
2023/05/24 09:33:39;;;;;;;9.43;5.93;;;16.20;45.70;;;;;;5039884;28;20197;-94
2023/05/24 09:36:07;;;;;;;6.38;5.70;;;16.10;45.80;;;;;;5023122;28;20217;-90
2023/05/24 09:38:34;;;;;;;5.93;5.32;;;16.00;44.70;;;;;;5052125;28;20194;-92
2023/05/24 09:41:03;;;;;;;7.05;6.07;;;16.00;44.50;;;;;;5041731;28;20194;-90
2023/05/24 09:43:31;;;;;;;7.80;6.35;;;16.10;44.80;;;;;;5045122;28;20198;-91
2023/05/24 09:46:00;;;;;;;9.43;6.25;;;16.30;43.40;;;;;;5050248;28;20351;-91
2023/05/24 09:48:27;;;;;;;8.70;7.10;;;16.30;42.30;;;;;;5042205;28;20197;-90
2023/05/24 09:53:47;;;;;;;8.77;7.25;;;16.20;43.60;;;;;;5046296;28;20226;-92
2023/05/24 09:56:14;;;;;;;9.15;7.55;;;16.10;43.30;;;;;;5046313;28;20250;-92
2023/05/24 09:58:41;;;;;;;9.38;6.53;;;16.00;44.90;;;;;;5050672;28;20202;-91
2023/05/24 10:01:12;;;;;;;9.60;7.30;;;16.00;46.40;;;;;;5045738;28;20198;-91
2023/05/24 10:03:39;;;;;;;10.50;7.70;;;16.00;43.40;;;;;;5027781;28;20283;-91
2023/05/24 10:08:49;;;;;;;10.05;7.15;;;15.90;46.20;;;;;;5047289;28;20212;-91
2023/05/24 10:11:16;;;;;;;8.98;6.72;;;15.80;45.70;;;;;;5046737;28;20199;-92
2023/05/24 10:13:43;;;;;;;11.25;7.82;;;15.70;47.40;;;;;;5042377;28;20204;-90
2023/05/24 10:16:11;;;;;;;11.32;8.32;;;15.80;49.00;;;;;;5046380;28;20234;-91
2023/05/24 10:18:39;;;;;;;8.75;6.90;;;15.80;50.60;;;;;;5048106;28;20252;-89
2023/05/24 10:24:14;;;;;;;10.13;7.78;;;15.70;52.00;;;;;;5038308;28;20206;-90
2023/05/24 10:26:49;;;;;;;12.63;7.88;;;15.60;51.90;;;;;;5040394;28;20727;-91
2023/05/24 10:29:24;;;;;;;8.90;7.68;;;15.50;53.60;;;;;;5042011;28;20225;-90
2023/05/24 10:31:53;;;;;;;10.15;8.52;;;15.50;54.40;;;;;;5029803;28;20240;-92
2023/05/24 10:34:20;;;;;;;12.10;8.82;;;15.50;55.70;;;;;;5044114;28;20203;-91
2023/05/24 10:36:50;;;;;;;15.13;8.60;;;15.60;53.60;;;;;;5044379;28;20535;-91
2023/05/24 10:39:36;;;;;;;9.60;8.50;;;15.60;56.10;;;;;;5047050;28;20572;-93
2023/05/24 10:42:05;;;;;;;9.25;7.22;;;15.70;55.40;;;;;;5043582;28;20783;-90
2023/05/24 10:44:32;;;;;;;9.30;7.38;;;15.80;55.90;;;;;;5040326;28;20230;-90
2023/05/24 10:55:21;;;;;;;9.70;7.00;;;16.20;52.40;;;;;;5038932;28;20232;-93
2023/05/24 10:57:48;;;;;;;11.48;6.85;;;16.20;52.40;;;;;;5044359;28;20747;-92
2023/05/24 11:00:28;;;;;;;9.98;7.18;;;16.00;53.40;;;;;;5049654;28;20206;-91
2023/05/24 11:03:03;;;;;;;10.80;7.18;;;15.70;49.00;;;;;;5042888;28;20194;-91
2023/05/24 11:05:35;;;;;;;9.57;7.13;;;15.60;51.90;;;;;;5043516;28;20649;-91
2023/05/24 11:08:08;;;;;;;12.25;7.10;;;15.60;51.90;;;;;;5045777;28;20954;-91
2023/05/24 11:10:36;;;;;;;8.93;6.40;;;15.80;50.00;;;;;;5038700;28;20288;-91
2023/05/24 11:13:03;;;;;;;9.25;6.50;;;15.80;46.80;;;;;;5035452;28;20665;-91
2023/05/24 11:18:15;;;;;;;10.55;6.43;;;15.80;46.90;;;;;;5043129;28;20226;-91
2023/05/24 11:20:43;;;;;;;13.98;7.45;;;15.60;49.40;;;;;;5044839;28;20253;-92
2023/05/24 11:25:56;;;;;;;8.98;7.13;;;15.50;49.50;;;;;;5025675;28;20202;-92
2023/05/24 11:28:25;;;;;;;11.00;7.15;;;15.50;49.40;;;;;;5036415;28;20209;-91
2023/05/24 11:30:52;;;;;;;13.52;7.68;;;15.50;51.10;;;;;;5046668;28;20190;-91
2023/05/24 11:33:22;;;;;;;11.07;8.15;;;15.50;50.00;;;;;;5042174;28;20199;-90
2023/05/24 11:36:09;;;;;;;12.50;7.53;;;15.60;47.60;;;;;;5046621;28;20226;-90
2023/05/24 11:38:38;;;;;;;10.40;7.10;;;15.60;45.20;;;;;;5024589;28;20309;-90
2023/05/24 11:41:06;;;;;;;15.00;8.10;;;15.60;46.10;;;;;;5039687;28;20199;-90
2023/05/24 11:43:33;;;;;;;10.85;7.32;;;15.80;47.70;;;;;;5043350;28;20202;-89
2023/05/24 11:46:00;;;;;;;14.18;10.00;;;16.10;44.20;;;;;;5041189;28;20226;-90
2023/05/24 11:48:28;;;;;;;15.45;7.25;;;16.30;45.30;;;;;;5043115;28;20293;-91
2023/05/24 11:50:55;;;;;;;11.50;7.13;;;16.40;44.30;;;;;;5045845;28;20565;-91
2023/05/24 11:53:23;;;;;;;10.15;7.57;;;16.50;42.90;;;;;;5039135;28;20557;-90
2023/05/24 12:01:38;;;;;;;8.95;7.05;;;16.90;39.60;;;;;;5033123;28;20198;-90
2023/05/24 12:04:08;;;;;;;15.13;7.00;;;17.00;39.20;;;;;;5045288;28;20266;-90
2023/05/24 12:06:36;;;;;;;10.50;6.88;;;17.00;39.00;;;;;;5049439;28;20195;-89
2023/05/24 12:09:07;;;;;;;12.98;6.88;;;16.90;37.70;;;;;;5041566;28;20792;-89
2023/05/24 12:11:54;;;;;;;9.05;6.85;;;16.80;39.20;;;;;;5037174;28;20202;-90
2023/05/24 12:14:25;;;;;;;12.13;7.10;;;16.80;39.10;;;;;;5011531;28;20199;-90
2023/05/24 12:19:40;;;;;;;11.02;6.97;;;16.20;39.60;;;;;;5025128;28;20289;-89
2023/05/24 12:22:07;;;;;;;10.82;7.03;;;16.10;38.60;;;;;;5039404;28;20235;-90
2023/05/24 12:24:35;;;;;;;13.70;6.72;;;16.00;41.50;;;;;;5041837;28;20204;-90
2023/05/24 12:27:08;;;;;;;12.90;6.78;;;16.20;41.80;;;;;;5039552;28;20221;-89
2023/05/24 12:29:37;;;;;;;8.27;6.35;;;16.20;41.50;;;;;;5042765;28;20281;-89
2023/05/24 12:34:54;;;;;;;14.95;8.40;;;16.10;42.30;;;;;;5042924;28;20658;-89
2023/05/24 12:37:21;;;;;;;12.50;6.40;;;16.10;39.30;;;;;;5039947;28;20644;-89
2023/05/24 12:39:48;;;;;;;11.35;6.85;;;16.00;38.70;;;;;;5039396;28;20244;-90
2023/05/24 12:44:59;;;;;;;11.20;6.00;;;15.90;40.40;;;;;;5041130;28;20198;-90
2023/05/24 12:47:26;;;;;;;9.68;6.00;;;16.00;37.40;;;;;;5040109;28;20212;-89
2023/05/24 12:49:53;;;;;;;16.63;5.85;;;16.10;37.90;;;;;;5041306;28;20198;-89
2023/05/24 12:55:01;;;;;;;7.75;5.45;;;16.20;36.70;;;;;;5044453;28;20240;-88
2023/05/24 13:00:32;;;;;;;8.65;5.22;;;16.20;37.30;;;;;;5046445;28;20206;-89
2023/05/24 13:02:59;;;;;;;8.73;5.38;;;16.20;37.20;;;;;;5037299;28;20285;-89
2023/05/24 13:05:34;;;;;;;9.05;5.60;;;16.30;38.60;;;;;;5042507;28;20705;-89
2023/05/24 13:08:02;;;;;;;11.77;5.78;;;16.20;37.10;;;;;;5037541;28;20194;-88
2023/05/24 13:10:29;;;;;;;13.60;5.65;;;16.10;37.70;;;;;;5044771;28;20205;-89
2023/05/24 13:12:58;;;;;;;13.05;6.45;;;16.10;37.50;;;;;;5042021;28;20285;-91
2023/05/24 13:15:26;;;;;;;15.05;5.43;;;16.40;34.80;;;;;;5047333;28;20229;-89
2023/05/24 13:25:59;;;;;;;11.68;5.53;;;17.20;33.30;;;;;;5045363;28;20236;-86
2023/05/24 13:28:30;;;;;;;10.20;5.43;;;17.50;30.00;;;;;;5039119;28;20198;-88
2023/05/24 13:30:58;;;;;;;11.63;6.25;;;17.40;30.90;;;;;;5038255;28;20550;-87
2023/05/24 13:33:25;;;;;;;10.57;6.05;;;17.30;29.90;;;;;;5046074;28;20669;-88
2023/05/24 13:35:52;;;;;;;12.00;5.45;;;17.20;29.70;;;;;;5051932;28;20616;-88
2023/05/24 13:38:20;;;;;;;12.85;5.43;;;17.10;31.60;;;;;;5045539;28;20220;-90
2023/05/24 13:41:08;;;;;;;8.60;5.70;;;17.10;32.10;;;;;;4980584;28;21006;-91
2023/05/24 13:46:55;;;;;;;26.17;10.60;;;17.00;29.90;;;;;;4974827;28;20250;-87
2023/05/24 13:58:03;;;;;;;11.30;5.88;;;16.50;31.80;;;;;;5043648;28;20236;-89
2023/05/24 14:00:37;;;;;;;13.00;6.82;;;16.60;29.20;;;;;;5041257;28;20687;-89
2023/05/24 14:03:08;;;;;;;12.48;6.60;;;16.90;29.50;;;;;;5035832;28;20194;-89
2023/05/24 14:05:35;;;;;;;10.60;6.03;;;16.60;31.40;;;;;;5040897;28;20265;-90
2023/05/24 14:08:05;;;;;;;12.02;5.80;;;16.40;33.10;;;;;;5036695;28;20714;-92
2023/05/24 14:13:34;;;;;;;11.07;6.47;;;16.10;36.80;;;;;;5018583;28;20205;-90
2023/05/24 14:16:03;;;;;;;15.38;6.30;;;15.80;34.90;;;;;;5036447;28;20214;-91
2023/05/24 14:18:50;;;;;;;10.63;5.65;;;15.80;36.10;;;;;;5031827;28;20223;-88
2023/05/24 14:24:23;;;;;;;14.23;6.03;;;15.70;34.90;;;;;;5038118;28;20205;-93
2023/05/24 14:26:50;;;;;;;15.13;5.95;;;15.80;35.00;;;;;;5040834;28;20289;-93
2023/05/24 14:29:17;;;;;;;8.45;5.05;;;15.80;35.80;;;;;;5050872;28;20197;-91
2023/05/24 14:46:42;;;;;;;7.47;5.03;;;15.80;31.00;;;;;;4987449;28;20204;-90
2023/05/24 14:49:11;;;;;;;10.50;5.60;;;15.80;29.60;;;;;;4968504;28;20279;-91
2023/05/24 14:57:25;;;;;;;9.15;5.20;;;16.10;28.70;;;;;;5042579;28;20218;-91
2023/05/24 14:59:52;;;;;;;10.20;5.75;;;16.10;28.30;;;;;;5043981;28;20194;-91
2023/05/24 15:02:20;;;;;;;10.40;5.57;;;16.20;28.10;;;;;;5043365;28;20268;-92
2023/05/24 15:07:29;;;;;;;9.68;5.18;;;16.00;28.70;;;;;;5039413;28;20220;-90
2023/05/24 15:09:56;;;;;;;9.85;5.38;;;16.10;28.80;;;;;;5045909;28;20565;-90
2023/05/24 15:12:23;;;;;;;8.68;5.47;;;16.20;28.90;;;;;;5049479;28;20216;-89
2023/05/24 15:14:50;;;;;;;11.02;6.20;;;16.30;28.00;;;;;;5039628;28;20201;-90
2023/05/24 15:17:18;;;;;;;11.23;5.70;;;16.50;27.40;;;;;;5042649;28;20225;-91
2023/05/24 15:19:44;;;;;;;9.25;5.22;;;16.40;29.00;;;;;;5042823;28;20195;-91
2023/05/24 15:24:54;;;;;;;11.70;5.47;;;16.40;27.50;;;;;;5039216;28;20525;-92
2023/05/24 15:27:21;;;;;;;10.82;5.10;;;16.40;29.00;;;;;;5050030;28;20198;-91
2023/05/24 15:29:49;;;;;;;12.88;5.30;;;16.60;29.70;;;;;;5033275;28;20205;-93
2023/05/24 15:35:17;;;;;;;9.93;5.43;;;17.00;27.40;;;;;;5026168;28;20197;-93
2023/05/24 15:40:26;;;;;;;9.23;5.28;;;17.00;27.60;;;;;;5033462;28;20198;-92
2023/05/24 15:42:53;;;;;;;9.82;5.32;;;17.10;29.20;;;;;;5056388;28;20208;-92
2023/05/24 15:45:20;;;;;;;10.95;4.95;;;16.90;26.00;;;;;;5049385;28;20216;-94
2023/05/24 15:47:49;;;;;;;6.20;4.55;;;17.00;26.70;;;;;;5041182;28;20244;-92
2023/05/24 15:55:59;;;;;;;11.77;4.75;;;17.50;24.50;;;;;;5030628;28;20279;-90
2023/05/24 15:58:26;;;;;;;9.23;4.68;;;17.80;24.00;;;;;;5047289;28;20224;-91
2023/05/24 16:00:53;;;;;;;8.05;4.95;;;17.70;27.30;;;;;;5047419;28;20201;-89
2023/05/24 16:03:21;;;;;;;8.80;5.07;;;17.80;25.10;;;;;;5042542;28;20210;-91
2023/05/24 16:05:49;;;;;;;10.93;4.78;;;17.90;22.80;;;;;;5030578;28;20199;-93
2023/05/24 16:08:17;;;;;;;10.25;5.05;;;17.70;25.20;;;;;;5047990;28;20563;-93
2023/05/24 16:10:44;;;;;;;10.88;5.22;;;17.50;24.50;;;;;;5045894;28;20287;-92
2023/05/24 16:13:12;;;;;;;11.10;5.10;;;17.30;25.60;;;;;;5049961;28;20619;-92
2023/05/24 16:15:41;;;;;;;12.02;5.22;;;17.30;25.80;;;;;;5037603;28;20284;-89
2023/05/24 16:18:08;;;;;;;12.98;5.90;;;17.40;24.50;;;;;;5028857;28;20296;-93
2023/05/24 16:20:35;;;;;;;12.60;5.05;;;17.20;24.80;;;;;;5048419;28;20347;-92
2023/05/24 16:23:03;;;;;;;10.52;5.40;;;17.20;28.50;;;;;;5057060;28;20192;-94
2023/05/24 16:25:31;;;;;;;10.75;4.95;;;17.30;26.00;;;;;;5061773;28;20197;-93
2023/05/24 16:27:59;;;;;;;8.65;5.25;;;17.30;26.80;;;;;;5060342;28;20194;-91
2023/05/24 16:30:26;;;;;;;8.15;4.88;;;17.40;25.40;;;;;;5064073;28;20213;-92
2023/05/24 16:32:52;;;;;;;11.68;5.38;;;17.30;24.30;;;;;;5049062;28;20198;-94
2023/05/24 16:35:19;;;;;;;13.25;5.03;;;17.20;25.70;;;;;;5039985;28;20193;-92
2023/05/24 16:37:48;;;;;;;11.70;5.60;;;17.00;26.20;;;;;;5046511;28;20964;-95
2023/05/24 16:40:15;;;;;;;13.10;5.47;;;17.00;25.40;;;;;;5045700;28;20197;-93
2023/05/24 16:45:24;;;;;;;9.27;5.85;;;16.80;27.90;;;;;;5051453;28;20211;-96
2023/05/24 16:47:51;;;;;;;10.48;5.88;;;16.60;26.00;;;;;;5050700;28;20193;-93
2023/05/24 16:50:18;;;;;;;10.25;5.00;;;16.60;26.00;;;;;;5032959;28;20682;-93
2023/05/24 16:52:46;;;;;;;13.27;6.22;;;16.60;26.60;;;;;;5043412;28;20257;-94
2023/05/24 16:55:14;;;;;;;9.63;5.57;;;16.70;27.60;;;;;;5042289;28;20195;-93
2023/05/24 16:57:42;;;;;;;12.23;5.43;;;16.50;29.00;;;;;;5053523;28;20232;-93
2023/05/24 17:00:11;;;;;;;14.73;5.35;;;16.40;29.00;;;;;;5038382;28;20209;-95
2023/05/24 17:02:38;;;;;;;10.85;5.63;;;16.30;29.00;;;;;;5027711;28;20567;-93
2023/05/24 17:05:06;;;;;;;8.02;5.18;;;16.20;29.10;;;;;;5041557;28;20638;-93
2023/05/24 17:07:33;;;;;;;9.95;5.50;;;16.10;29.50;;;;;;5044939;28;20570;-94
2023/05/24 17:10:00;;;;;;;10.48;5.28;;;16.20;29.20;;;;;;5047321;28;20204;-93
2023/05/24 17:12:28;;;;;;;13.63;5.25;;;16.20;32.50;;;;;;5046709;28;21716;-95
2023/05/24 17:14:56;;;;;;;9.27;5.50;;;16.10;32.00;;;;;;5047531;28;20198;-94
2023/05/24 17:17:23;;;;;;;11.15;5.70;;;15.90;31.30;;;;;;5060431;28;20224;-90
2023/05/24 17:19:50;;;;;;;10.90;5.65;;;15.60;32.60;;;;;;5052011;28;20205;-94
2023/05/24 17:22:17;;;;;;;10.43;5.65;;;15.70;33.10;;;;;;5050268;28;20205;-93
2023/05/24 17:24:44;;;;;;;14.00;5.97;;;15.50;33.10;;;;;;5046265;28;20202;-94
2023/05/24 17:27:12;;;;;;;10.50;5.35;;;15.40;33.30;;;;;;5055021;28;20381;-93
2023/05/24 17:32:21;;;;;;;7.90;4.90;;;15.40;39.60;;;;;;5038039;28;20281;-90
2023/05/24 17:35:21;;;;;;;10.23;6.13;;;15.30;40.20;;;;;;5050779;28;20677;-93
2023/05/24 17:38:36;;;;;;;12.05;5.97;;;15.40;37.40;;;;;;5047353;28;20236;-92
2023/05/24 17:41:22;;;;;;;12.10;5.75;;;15.30;37.60;;;;;;5029629;28;20227;-92
2023/05/24 17:43:52;;;;;;;9.73;5.40;;;15.30;37.70;;;;;;5042547;28;20201;-90
2023/05/24 17:46:20;;;;;;;11.07;5.72;;;15.20;38.90;;;;;;5041933;28;20206;-91
2023/05/24 17:51:34;;;;;;;12.75;5.45;;;15.10;39.60;;;;;;5044197;28;20202;-92
2023/05/24 17:54:21;;;;;;;12.20;5.93;;;15.00;40.80;;;;;;5038550;28;20202;-89
2023/05/24 17:56:51;;;;;;;9.60;4.97;;;15.00;40.50;;;;;;5048223;28;20627;-93
2023/05/24 17:59:18;;;;;;;9.32;5.43;;;15.00;42.10;;;;;;5048112;28;20202;-89
2023/05/24 18:01:46;;;;;;;9.38;5.63;;;15.00;41.00;;;;;;5042101;28;20205;-93
2023/05/24 18:07:17;;;;;;;11.73;5.78;;;14.90;40.40;;;;;;5036692;28;20194;-92
2023/05/24 18:09:44;;;;;;;10.13;5.60;;;15.00;40.20;;;;;;5043163;28;20857;-93
2023/05/24 18:12:11;;;;;;;12.85;5.80;;;14.90;41.20;;;;;;5053154;28;20224;-92
2023/05/24 18:14:38;;;;;;;9.80;5.93;;;15.00;40.00;;;;;;5046931;28;20237;-90
2023/05/24 18:17:05;;;;;;;10.13;5.80;;;14.90;39.90;;;;;;5046115;28;20234;-91
2023/05/24 18:19:32;;;;;;;10.32;5.25;;;14.90;42.00;;;;;;5044013;28;20293;-90
2023/05/24 18:27:44;;;;;;;10.52;5.32;;;14.80;41.50;;;;;;5032501;28;20237;-93
2023/05/24 18:30:12;;;;;;;9.73;5.75;;;14.70;41.10;;;;;;5044256;28;20266;-92
2023/05/24 18:32:39;;;;;;;9.65;5.43;;;14.70;41.30;;;;;;5045134;28;20202;-92
2023/05/24 18:43:37;;;;;;;12.63;5.35;;;14.60;41.70;;;;;;5041730;28;20304;-92
2023/05/24 18:46:26;;;;;;;13.52;5.72;;;14.50;42.80;;;;;;5048576;28;20198;-92
2023/05/24 18:51:36;;;;;;;9.05;4.57;;;14.50;43.10;;;;;;5004935;28;20221;-92
2023/05/24 18:56:46;;;;;;;11.68;4.93;;;14.40;43.10;;;;;;5031510;28;20252;-92
2023/05/24 18:59:15;;;;;;;12.65;5.68;;;14.40;46.20;;;;;;5050683;28;20199;-92
2023/05/24 19:02:01;;;;;;;11.27;5.63;;;14.30;44.60;;;;;;5035396;28;20248;-92
2023/05/24 19:07:31;;;;;;;13.45;4.80;;;14.40;44.60;;;;;;5046350;28;20410;-92
2023/05/24 19:15:22;;;;;;;10.60;4.50;;;14.30;41.80;;;;;;5033568;28;20247;-92
2023/05/24 19:17:51;;;;;;;8.90;4.45;;;14.30;40.90;;;;;;5054046;28;20225;-92
2023/05/24 19:20:27;;;;;;;9.82;4.72;;;14.20;41.70;;;;;;5042105;28;20206;-92
2023/05/24 19:22:55;;;;;;;11.02;5.20;;;14.20;41.10;;;;;;5047277;28;20281;-91
2023/05/24 19:28:09;;;;;;;9.68;4.60;;;14.10;40.70;;;;;;5050867;28;20244;-92
2023/05/24 19:30:59;;;;;;;7.47;4.60;;;14.00;41.10;;;;;;5043801;28;20205;-92
2023/05/24 19:33:28;;;;;;;7.72;4.63;;;14.00;41.50;;;;;;5044904;28;20194;-91